createdAt,value
2023-03-26T00:01:15.629Z,13.25
2023-03-26T00:03:47.414Z,13.88
2023-03-26T00:06:17.495Z,13.70
2023-03-26T00:08:46.079Z,13.90
2023-03-26T00:11:16.079Z,13.25
2023-03-26T00:13:44.307Z,14.82
2023-03-26T00:16:13.886Z,14.50
2023-03-26T00:18:42.667Z,14.55
2023-03-26T00:21:15.584Z,16.30
2023-03-26T00:23:44.067Z,15.75
2023-03-26T00:26:17.477Z,16.25
2023-03-26T00:28:45.464Z,16.02
2023-03-26T00:31:14.954Z,15.77
2023-03-26T00:33:42.824Z,16.05
2023-03-26T00:36:17.595Z,15.95
2023-03-26T00:38:46.886Z,14.82
2023-03-26T00:41:18.047Z,15.60
2023-03-26T00:43:46.891Z,15.98
2023-03-26T00:46:14.925Z,16.65
2023-03-26T00:48:45.793Z,16.45
2023-03-26T00:51:15.941Z,16.35
2023-03-26T00:53:47.070Z,15.70
2023-03-26T00:56:15.295Z,15.70
2023-03-26T00:58:43.456Z,15.15
2023-03-26T01:01:14.452Z,16.83
2023-03-26T01:03:53.171Z,15.98
2023-03-26T01:06:36.156Z,15.13
2023-03-26T01:09:15.931Z,16.15
2023-03-26T01:11:43.711Z,17.88
2023-03-26T01:14:15.841Z,17.95
2023-03-26T01:16:52.507Z,18.38
2023-03-26T01:19:29.249Z,18.23
2023-03-26T01:21:59.026Z,18.15
2023-03-26T01:24:26.985Z,19.00
2023-03-26T01:27:08.016Z,17.80
2023-03-26T01:29:57.783Z,15.45
2023-03-26T01:32:40.672Z,15.98
2023-03-26T01:35:26.464Z,16.50
2023-03-26T01:38:01.982Z,16.42
2023-03-26T01:43:29.669Z,18.60
2023-03-26T01:46:01.989Z,17.58
2023-03-26T01:48:33.139Z,18.25
2023-03-26T01:51:00.627Z,18.52
2023-03-26T01:53:29.157Z,18.60
2023-03-26T01:56:21.298Z,18.85
2023-03-26T01:59:13.303Z,18.30
2023-03-26T02:01:48.612Z,19.23
2023-03-26T02:04:34.077Z,18.15
2023-03-26T02:07:28.821Z,19.65
2023-03-26T02:10:05.587Z,18.80
2023-03-26T02:12:33.675Z,20.02
2023-03-26T02:15:02.216Z,19.73
2023-03-26T02:17:32.639Z,19.70
2023-03-26T02:20:05.865Z,20.80
2023-03-26T02:22:40.757Z,20.23
2023-03-26T02:25:11.987Z,19.92
2023-03-26T02:27:39.609Z,19.75
2023-03-26T02:30:17.376Z,20.00
2023-03-26T02:32:47.809Z,20.15
2023-03-26T02:35:15.411Z,20.52
2023-03-26T02:37:46.942Z,21.58
2023-03-26T02:40:23.744Z,20.80
2023-03-26T02:42:51.917Z,21.05
2023-03-26T02:45:19.506Z,19.98
2023-03-26T02:47:51.079Z,21.10
2023-03-26T02:50:44.880Z,22.40
2023-03-26T02:53:32.618Z,22.27
2023-03-26T02:56:17.673Z,21.37
2023-03-26T02:58:58.495Z,21.90
2023-03-26T03:01:26.067Z,20.73
2023-03-26T03:03:55.266Z,21.52
2023-03-26T03:06:35.909Z,21.15
2023-03-26T03:09:05.148Z,21.85
2023-03-26T03:11:40.404Z,22.73
2023-03-26T03:14:08.733Z,21.85
2023-03-26T03:16:36.518Z,21.20
2023-03-26T03:19:07.366Z,21.25
2023-03-26T03:21:40.292Z,21.25
2023-03-26T03:24:09.776Z,21.30
2023-03-26T03:26:42.505Z,20.33
2023-03-26T03:29:33.267Z,20.08
2023-03-26T03:32:22.837Z,20.75
2023-03-26T03:34:52.632Z,21.77
2023-03-26T03:37:20.466Z,21.35
2023-03-26T03:39:52.614Z,24.08
2023-03-26T03:42:25.420Z,23.75
2023-03-26T03:44:56.231Z,22.73
2023-03-26T03:47:49.045Z,24.00
2023-03-26T03:50:22.014Z,20.75
2023-03-26T03:53:16.028Z,20.50
2023-03-26T03:55:53.393Z,21.00
2023-03-26T03:58:24.751Z,22.00
2023-03-26T04:01:03.162Z,23.02
2023-03-26T04:03:57.330Z,23.67
2023-03-26T04:06:31.519Z,23.42
2023-03-26T04:08:59.324Z,23.95
2023-03-26T04:11:27.153Z,22.08
2023-03-26T04:14:22.575Z,22.38
2023-03-26T04:17:13.509Z,23.50
2023-03-26T04:19:41.357Z,22.83
2023-03-26T04:22:12.021Z,22.88
2023-03-26T04:24:56.557Z,23.02
2023-03-26T04:27:33.075Z,22.40
2023-03-26T04:30:20.091Z,21.75
2023-03-26T04:32:54.572Z,22.15
2023-03-26T04:35:22.190Z,23.67
2023-03-26T04:37:54.919Z,21.52
2023-03-26T04:40:30.637Z,22.33
2023-03-26T04:43:18.611Z,21.80
2023-03-26T04:46:03.310Z,23.13
2023-03-26T04:48:34.286Z,22.27
2023-03-26T04:51:02.136Z,22.98
2023-03-26T04:53:29.655Z,22.90
2023-03-26T04:57:01.533Z,23.17
2023-03-26T04:59:50.173Z,23.52
2023-03-26T05:02:18.031Z,23.73
2023-03-26T05:04:50.474Z,22.60
2023-03-26T05:07:22.537Z,22.73
2023-03-26T05:09:53.360Z,22.38
2023-03-26T05:12:39.543Z,24.70
2023-03-26T05:15:15.060Z,24.17
2023-03-26T05:18:02.135Z,23.23
2023-03-26T05:20:43.516Z,23.20
2023-03-26T05:23:11.492Z,24.90
2023-03-26T05:25:42.977Z,22.67
2023-03-26T05:28:20.808Z,23.38
2023-03-26T05:30:54.815Z,22.30
2023-03-26T05:33:24.670Z,22.00
2023-03-26T05:36:15.936Z,22.15
2023-03-26T05:38:49.696Z,21.33
2023-03-26T05:41:47.078Z,22.17
2023-03-26T05:44:14.544Z,21.15
2023-03-26T05:46:41.972Z,20.65
2023-03-26T05:49:12.925Z,19.58
2023-03-26T05:51:40.853Z,20.30
2023-03-26T05:54:25.241Z,19.75
2023-03-26T05:57:11.500Z,19.38
2023-03-26T05:59:57.832Z,17.58
2023-03-26T06:02:44.353Z,17.90
2023-03-26T06:05:43.124Z,17.90
2023-03-26T06:08:19.737Z,17.13
2023-03-26T06:11:05.536Z,17.65
2023-03-26T06:13:36.172Z,18.25
2023-03-26T06:16:04.070Z,18.27
2023-03-26T06:18:34.708Z,18.73
2023-03-26T06:21:37.808Z,17.58
2023-03-26T06:24:12.598Z,18.40
2023-03-26T06:27:09.196Z,19.02
2023-03-26T06:29:55.197Z,18.48
2023-03-26T06:32:37.132Z,19.60
2023-03-26T06:35:11.681Z,19.92
2023-03-26T06:37:39.228Z,19.08
2023-03-26T06:40:08.329Z,19.23
2023-03-26T06:43:08.174Z,18.50
2023-03-26T06:46:10.499Z,18.35
2023-03-26T06:49:28.551Z,19.02
2023-03-26T08:04:24.924Z,5.57
2023-03-26T08:07:40.249Z,5.45
2023-03-26T08:10:23.130Z,6.13
2023-03-26T08:13:10.355Z,6.55
2023-03-26T08:15:50.003Z,6.03
2023-03-26T08:18:41.764Z,6.00
2023-03-26T08:21:27.409Z,5.60
2023-03-26T08:27:10.145Z,5.70
2023-03-26T08:29:55.757Z,5.35
2023-03-26T08:34:52.857Z,5.45
2023-03-26T08:37:27.523Z,5.55
2023-03-26T08:39:56.349Z,5.55
2023-03-26T08:42:57.318Z,5.18
2023-03-26T08:46:03.822Z,4.90
2023-03-26T08:48:40.031Z,5.07
2023-03-26T08:51:13.703Z,3.70
2023-03-26T08:54:04.132Z,2.22
2023-03-26T08:57:18.055Z,1.83
2023-03-26T09:04:08.059Z,1.60
2023-03-26T09:07:10.389Z,1.77
2023-03-26T09:10:46.015Z,1.73
2023-03-26T09:18:18.799Z,2.00
2023-03-26T09:21:26.443Z,2.10
2023-03-26T09:25:08.151Z,2.42
2023-03-26T09:28:44.292Z,2.45
2023-03-26T09:35:55.078Z,2.70
2023-03-26T09:38:56.626Z,3.00
2023-03-26T09:42:06.680Z,2.63
2023-03-26T09:45:07.422Z,3.03
2023-03-26T09:48:34.622Z,2.92
2023-03-26T09:51:55.096Z,2.53
2023-03-26T09:54:31.939Z,2.53
2023-03-26T09:57:37.360Z,2.83
2023-03-26T10:00:17.302Z,2.78
2023-03-26T10:03:11.518Z,3.17
2023-03-26T10:05:58.210Z,3.55
2023-03-26T10:08:48.609Z,2.97
2023-03-26T10:11:46.171Z,2.97
2023-03-26T10:14:41.636Z,3.63
2023-03-26T10:18:26.708Z,3.42
2023-03-26T10:24:43.916Z,3.22
2023-03-26T10:27:20.399Z,3.30
2023-03-26T10:30:29.254Z,3.42
2023-03-26T10:33:17.348Z,3.60
2023-03-26T10:35:56.663Z,4.10
2023-03-26T10:38:51.097Z,4.22
2023-03-26T10:41:38.389Z,4.63
2023-03-26T10:44:35.983Z,4.72
2023-03-26T10:47:15.637Z,4.35
2023-03-26T10:50:09.317Z,4.22
2023-03-26T10:53:03.500Z,4.80
2023-03-26T10:55:45.718Z,5.03
2023-03-26T10:58:26.972Z,4.72
2023-03-26T11:01:13.981Z,4.68
2023-03-26T11:03:54.920Z,4.50
2023-03-26T11:06:41.431Z,4.70
2023-03-26T11:09:38.152Z,5.05
2023-03-26T11:12:27.019Z,4.63
2023-03-26T11:15:14.673Z,5.00
2023-03-26T11:18:09.602Z,4.60
2023-03-26T11:21:19.207Z,4.13
2023-03-26T11:24:05.394Z,4.78
2023-03-26T11:27:15.465Z,3.85
2023-03-26T11:29:51.691Z,4.10
2023-03-26T11:32:31.372Z,3.67
2023-03-26T11:35:47.243Z,3.70
2023-03-26T11:38:28.993Z,3.28
2023-03-26T11:40:59.545Z,3.50
2023-03-26T11:43:50.496Z,3.65
2023-03-26T11:46:22.844Z,3.78
2023-03-26T11:48:57.499Z,3.72
2023-03-26T11:51:49.896Z,3.33
2023-03-26T11:54:18.025Z,2.75
2023-03-26T11:57:10.426Z,3.60
2023-03-26T11:59:57.287Z,2.80
2023-03-26T12:02:29.946Z,3.47
2023-03-26T12:05:20.683Z,3.55
2023-03-26T12:07:57.495Z,3.25
2023-03-26T12:10:32.768Z,3.80
2023-03-26T12:13:16.508Z,4.10
2023-03-26T12:15:44.401Z,3.95
2023-03-26T12:18:24.190Z,3.45
2023-03-26T12:21:05.305Z,3.03
2023-03-26T12:23:54.099Z,3.40
2023-03-26T12:26:34.102Z,3.33
2023-03-26T12:29:17.807Z,3.33
2023-03-26T12:32:08.708Z,3.22
2023-03-26T12:34:41.940Z,3.20
2023-03-26T13:04:30.614Z,3.50
2023-03-26T13:07:09.733Z,3.90
2023-03-26T13:10:08.701Z,3.55
2023-03-26T13:12:49.544Z,3.40
2023-03-26T13:15:30.654Z,3.20
2023-03-26T13:18:26.093Z,3.03
2023-03-26T13:21:57.297Z,3.10
2023-03-26T13:25:21.941Z,3.40
2023-03-26T13:27:55.694Z,3.17
2023-03-26T13:30:39.153Z,3.00
2023-03-26T13:33:47.934Z,2.88
2023-03-26T13:36:59.711Z,3.30
2023-03-26T13:39:51.852Z,3.83
2023-03-26T13:42:40.702Z,4.13
2023-03-26T13:45:17.383Z,4.15
2023-03-26T13:47:51.445Z,3.88
2023-03-26T13:50:33.295Z,3.90
2023-03-26T13:53:14.361Z,3.80
2023-03-26T13:55:49.628Z,4.50
2023-03-26T14:11:07.348Z,4.03
2023-03-26T14:14:11.595Z,4.43
2023-03-26T14:17:54.993Z,4.10
2023-03-26T14:20:57.182Z,4.45
2023-03-26T14:24:38.333Z,4.00
2023-03-26T14:27:57.430Z,4.20
2023-03-26T14:31:46.594Z,4.35
2023-03-26T14:55:54.088Z,5.90
2023-03-26T15:07:14.174Z,7.15
2023-03-26T15:14:56.029Z,7.20
2023-03-26T15:18:20.107Z,6.50
2023-03-26T15:21:28.561Z,6.65
2023-03-26T15:24:16.442Z,7.90
2023-03-26T15:27:36.352Z,8.50
2023-03-26T15:34:35.005Z,8.48
2023-03-26T15:37:12.093Z,8.68
2023-03-26T15:40:09.857Z,8.23
2023-03-26T15:43:13.023Z,8.55
2023-03-26T15:45:56.590Z,8.25
2023-03-26T15:48:41.514Z,9.68
2023-03-26T15:54:22.825Z,9.48
2023-03-26T15:56:59.545Z,8.80
2023-03-26T16:00:26.661Z,8.73
2023-03-26T16:06:09.410Z,6.55
2023-03-26T16:09:04.755Z,7.95
2023-03-26T16:11:53.995Z,10.77
2023-03-26T16:14:43.374Z,8.60
2023-03-26T16:17:30.362Z,4.10
2023-03-26T16:20:33.255Z,8.60
2023-03-26T16:23:07.057Z,5.47
2023-03-26T16:25:53.268Z,8.55
2023-03-26T16:28:30.512Z,3.75
2023-03-26T16:31:36.709Z,3.42
2023-03-26T16:34:09.030Z,7.47
2023-03-26T16:36:43.647Z,4.47
2023-03-26T16:39:21.384Z,4.78
2023-03-26T16:42:05.641Z,4.75
2023-03-26T16:44:55.482Z,4.50
2023-03-26T16:47:38.013Z,4.57
2023-03-26T16:52:01.830Z,4.07
2023-03-26T16:58:12.535Z,3.22
2023-03-26T17:00:48.127Z,3.10
2023-03-26T17:03:32.202Z,2.63
2023-03-26T17:06:26.723Z,3.00
2023-03-26T17:09:57.450Z,2.72
2023-03-26T17:13:25.864Z,2.28
2023-03-26T17:16:22.489Z,3.80
2023-03-26T17:19:33.578Z,2.13
2023-03-26T17:22:43.672Z,2.38
2023-03-26T17:26:34.260Z,2.30
2023-03-26T17:29:02.137Z,2.33
2023-03-26T17:32:21.816Z,2.45
2023-03-26T17:35:07.780Z,6.45
2023-03-26T17:41:02.903Z,25.45
2023-03-26T17:44:34.501Z,13.05
2023-03-26T17:47:07.048Z,2.85
2023-03-26T17:49:35.581Z,2.58
2023-03-26T17:52:21.042Z,2.78
2023-03-26T17:54:55.267Z,2.50
2023-03-26T17:57:28.470Z,2.22
2023-03-26T17:59:59.862Z,2.85
2023-03-26T18:02:37.995Z,2.45
2023-03-26T18:05:10.133Z,2.63
2023-03-26T18:08:02.353Z,2.35
2023-03-26T18:10:56.202Z,2.28
2023-03-26T18:14:19.102Z,2.60
2023-03-26T18:17:42.134Z,2.92
2023-03-26T18:21:50.564Z,2.70
2023-03-26T18:24:27.628Z,3.00
2023-03-26T18:27:26.404Z,3.28
2023-03-26T18:30:02.311Z,2.90
2023-03-26T18:32:33.864Z,3.38
2023-03-26T18:35:22.095Z,3.70
2023-03-26T18:37:54.191Z,4.60
2023-03-26T18:45:38.431Z,3.33
2023-03-26T18:48:25.380Z,3.30
2023-03-26T18:51:06.499Z,3.08
2023-03-26T18:54:51.191Z,3.58
2023-03-26T18:58:29.020Z,4.25
2023-03-26T19:02:11.935Z,5.18
2023-03-26T19:09:55.877Z,5.07
2023-03-26T19:17:11.024Z,4.43
2023-03-26T19:20:19.928Z,23.70
2023-03-26T19:23:16.630Z,16.83
2023-03-26T19:29:54.334Z,7.40
2023-03-26T19:32:32.883Z,4.90
2023-03-26T19:35:02.369Z,5.00
2023-03-26T19:37:34.588Z,4.38
2023-03-26T19:40:33.970Z,4.28
2023-03-26T19:43:03.783Z,6.13
2023-03-26T19:45:34.826Z,14.70
2023-03-26T19:48:15.257Z,40.10
2023-03-26T19:51:18.843Z,27.35
2023-03-26T19:54:22.290Z,42.90
2023-03-26T20:24:02.438Z,7.75
2023-03-26T20:30:07.347Z,7.45
2023-03-26T20:33:13.065Z,8.90
2023-03-26T20:36:02.591Z,8.55
2023-03-26T20:38:44.947Z,8.52
2023-03-26T20:45:39.140Z,9.40
2023-03-26T20:48:30.180Z,11.18
2023-03-26T20:50:57.954Z,9.38
2023-03-26T20:53:28.630Z,9.68
2023-03-26T20:55:56.731Z,10.15
2023-03-26T20:58:30.603Z,10.55
2023-03-26T21:01:02.499Z,10.60
2023-03-26T21:03:30.390Z,10.63
2023-03-26T21:06:02.871Z,10.57
2023-03-26T21:08:39.634Z,14.02
2023-03-26T21:11:44.654Z,11.13
2023-03-26T21:14:43.488Z,11.98
2023-03-26T21:17:16.661Z,12.30
2023-03-26T21:19:45.579Z,12.80
2023-03-26T21:22:40.548Z,13.63
2023-03-26T21:25:21.144Z,15.05
2023-03-26T21:28:29.089Z,14.50
2023-03-26T21:30:59.933Z,15.93
2023-03-26T21:33:28.406Z,15.15
2023-03-26T21:35:58.205Z,14.32
2023-03-26T21:38:26.170Z,14.32
2023-03-26T21:40:58.921Z,15.10
2023-03-26T21:43:26.936Z,14.25
2023-03-26T21:45:54.883Z,14.80
2023-03-26T21:48:22.592Z,14.75
2023-03-26T21:50:50.240Z,14.52
2023-03-26T21:53:17.913Z,14.48
2023-03-26T21:56:00.538Z,14.68
2023-03-26T21:58:47.780Z,14.73
2023-03-26T22:01:26.298Z,14.63
2023-03-26T22:04:06.858Z,14.68
2023-03-26T22:06:43.762Z,13.75
2023-03-26T22:09:12.940Z,12.93
2023-03-26T22:11:44.308Z,13.32
2023-03-26T22:14:14.284Z,12.32
2023-03-26T22:16:41.746Z,13.32
2023-03-26T22:19:09.190Z,14.77
2023-03-26T22:21:36.633Z,15.68
2023-03-26T22:24:04.270Z,15.63
2023-03-26T22:26:31.941Z,15.35
2023-03-26T22:28:59.479Z,15.02
2023-03-26T22:31:27.011Z,14.32
2023-03-26T22:33:55.964Z,15.82
2023-03-26T22:36:25.317Z,16.52
2023-03-26T22:38:54.170Z,15.45
2023-03-26T22:41:22.993Z,15.13
2023-03-26T22:43:54.695Z,15.60
2023-03-26T22:46:22.742Z,15.60
2023-03-26T22:48:51.186Z,16.08
2023-03-26T22:51:18.593Z,16.98
2023-03-26T22:53:46.092Z,15.57
2023-03-26T22:56:14.410Z,16.23
2023-03-26T22:58:42.351Z,19.30
2023-03-26T23:01:17.790Z,23.80
2023-03-26T23:06:13.212Z,19.25
2023-03-26T23:08:41.260Z,20.85
2023-03-26T23:11:13.950Z,20.58
2023-03-26T23:13:42.172Z,20.02
2023-03-26T23:16:10.417Z,17.83
2023-03-26T23:18:39.067Z,17.67
2023-03-26T23:21:11.970Z,18.05
2023-03-26T23:23:40.053Z,19.38
2023-03-26T23:26:07.812Z,20.30
2023-03-26T23:28:36.017Z,17.95
2023-03-26T23:31:06.763Z,17.90
2023-03-26T23:33:36.472Z,21.25
2023-03-26T23:36:09.820Z,18.58
2023-03-26T23:38:43.452Z,16.92
2023-03-26T23:41:15.790Z,17.45
2023-03-26T23:43:54.286Z,17.33
2023-03-26T23:46:24.653Z,18.05
2023-03-26T23:48:52.919Z,21.73
2023-03-26T23:51:21.691Z,22.50
2023-03-26T23:53:49.527Z,24.85
2023-03-26T23:56:17.755Z,19.13
2023-03-26T23:58:45.277Z,17.55
